sensor_id;sensor_type;location;lat;lon;timestamp;P1;durP1;ratioP1;P2;durP2;ratioP2
1715;SDS011;855;48.824;9.220;2022-08-03T00:02:10;13.40;;;6.13;;
1715;SDS011;855;48.824;9.220;2022-08-03T00:04:37;10.30;;;6.37;;
1715;SDS011;855;48.824;9.220;2022-08-03T00:07:04;12.40;;;5.57;;
1715;SDS011;855;48.824;9.220;2022-08-03T00:09:31;11.90;;;6.37;;
1715;SDS011;855;48.824;9.220;2022-08-03T00:11:59;11.57;;;5.60;;
1715;SDS011;855;48.824;9.220;2022-08-03T00:14:26;11.43;;;5.97;;
1715;SDS011;855;48.824;9.220;2022-08-03T00:16:53;10.87;;;5.70;;
1715;SDS011;855;48.824;9.220;2022-08-03T00:19:20;9.93;;;6.40;;
1715;SDS011;855;48.824;9.220;2022-08-03T00:21:46;10.80;;;5.60;;
1715;SDS011;855;48.824;9.220;2022-08-03T00:24:13;10.47;;;5.23;;
1715;SDS011;855;48.824;9.220;2022-08-03T00:26:40;12.90;;;5.90;;
1715;SDS011;855;48.824;9.220;2022-08-03T00:29:08;12.50;;;5.47;;
1715;SDS011;855;48.824;9.220;2022-08-03T00:31:35;11.40;;;5.97;;
1715;SDS011;855;48.824;9.220;2022-08-03T00:34:02;10.97;;;6.77;;
1715;SDS011;855;48.824;9.220;2022-08-03T00:36:29;11.20;;;5.90;;
1715;SDS011;855;48.824;9.220;2022-08-03T00:38:56;15.83;;;6.80;;
1715;SDS011;855;48.824;9.220;2022-08-03T00:41:23;11.70;;;5.83;;
1715;SDS011;855;48.824;9.220;2022-08-03T00:43:49;10.37;;;5.90;;
1715;SDS011;855;48.824;9.220;2022-08-03T00:46:18;9.57;;;5.80;;
1715;SDS011;855;48.824;9.220;2022-08-03T00:48:46;11.33;;;6.03;;
1715;SDS011;855;48.824;9.220;2022-08-03T00:51:13;10.10;;;5.83;;
1715;SDS011;855;48.824;9.220;2022-08-03T00:53:40;14.57;;;6.30;;
1715;SDS011;855;48.824;9.220;2022-08-03T00:56:07;8.67;;;5.70;;
1715;SDS011;855;48.824;9.220;2022-08-03T00:58:34;10.07;;;5.67;;
1715;SDS011;855;48.824;9.220;2022-08-03T01:01:01;12.80;;;6.20;;
1715;SDS011;855;48.824;9.220;2022-08-03T01:03:32;13.03;;;5.83;;
1715;SDS011;855;48.824;9.220;2022-08-03T01:05:59;14.03;;;6.47;;
1715;SDS011;855;48.824;9.220;2022-08-03T01:08:35;11.33;;;6.87;;
1715;SDS011;855;48.824;9.220;2022-08-03T01:11:09;14.57;;;7.03;;
1715;SDS011;855;48.824;9.220;2022-08-03T01:13:44;10.23;;;6.43;;
1715;SDS011;855;48.824;9.220;2022-08-03T01:16:18;19.73;;;8.53;;
1715;SDS011;855;48.824;9.220;2022-08-03T01:18:54;12.23;;;6.97;;
1715;SDS011;855;48.824;9.220;2022-08-03T01:21:30;9.50;;;6.80;;
1715;SDS011;855;48.824;9.220;2022-08-03T01:24:06;10.70;;;7.00;;
1715;SDS011;855;48.824;9.220;2022-08-03T01:26:52;8.93;;;5.87;;
1715;SDS011;855;48.824;9.220;2022-08-03T01:29:46;10.97;;;6.80;;
1715;SDS011;855;48.824;9.220;2022-08-03T01:32:33;13.43;;;7.27;;
1715;SDS011;855;48.824;9.220;2022-08-03T01:35:05;13.93;;;5.40;;
1715;SDS011;855;48.824;9.220;2022-08-03T01:37:39;12.83;;;6.53;;
1715;SDS011;855;48.824;9.220;2022-08-03T01:40:10;13.03;;;5.90;;
1715;SDS011;855;48.824;9.220;2022-08-03T01:42:39;16.33;;;6.70;;
1715;SDS011;855;48.824;9.220;2022-08-03T01:45:09;14.47;;;6.97;;
1715;SDS011;855;48.824;9.220;2022-08-03T01:47:38;12.77;;;6.40;;
1715;SDS011;855;48.824;9.220;2022-08-03T01:50:07;12.40;;;5.87;;
1715;SDS011;855;48.824;9.220;2022-08-03T01:52:37;16.27;;;6.27;;
1715;SDS011;855;48.824;9.220;2022-08-03T01:55:06;14.67;;;6.10;;
1715;SDS011;855;48.824;9.220;2022-08-03T01:57:35;11.43;;;6.53;;
1715;SDS011;855;48.824;9.220;2022-08-03T02:00:04;9.60;;;6.50;;
1715;SDS011;855;48.824;9.220;2022-08-03T02:02:35;9.27;;;5.63;;
1715;SDS011;855;48.824;9.220;2022-08-03T02:05:03;11.43;;;5.50;;
1715;SDS011;855;48.824;9.220;2022-08-03T02:07:34;9.00;;;5.80;;
1715;SDS011;855;48.824;9.220;2022-08-03T02:10:02;15.60;;;6.13;;
1715;SDS011;855;48.824;9.220;2022-08-03T02:12:31;15.03;;;5.93;;
1715;SDS011;855;48.824;9.220;2022-08-03T02:14:59;16.43;;;6.77;;
1715;SDS011;855;48.824;9.220;2022-08-03T02:17:28;10.20;;;5.37;;
1715;SDS011;855;48.824;9.220;2022-08-03T02:19:57;11.87;;;5.57;;
1715;SDS011;855;48.824;9.220;2022-08-03T02:22:25;11.17;;;5.90;;
1715;SDS011;855;48.824;9.220;2022-08-03T02:24:53;7.30;;;5.07;;
1715;SDS011;855;48.824;9.220;2022-08-03T02:27:21;9.87;;;5.10;;
1715;SDS011;855;48.824;9.220;2022-08-03T02:29:51;12.47;;;6.00;;
1715;SDS011;855;48.824;9.220;2022-08-03T02:32:20;8.67;;;5.30;;
1715;SDS011;855;48.824;9.220;2022-08-03T02:34:50;11.17;;;5.80;;
1715;SDS011;855;48.824;9.220;2022-08-03T02:37:21;12.13;;;5.77;;
1715;SDS011;855;48.824;9.220;2022-08-03T02:39:52;7.13;;;4.93;;
1715;SDS011;855;48.824;9.220;2022-08-03T02:42:26;10.10;;;5.57;;
1715;SDS011;855;48.824;9.220;2022-08-03T02:44:55;10.40;;;5.13;;
1715;SDS011;855;48.824;9.220;2022-08-03T02:47:24;8.03;;;5.10;;
1715;SDS011;855;48.824;9.220;2022-08-03T02:49:53;11.00;;;6.57;;
1715;SDS011;855;48.824;9.220;2022-08-03T02:52:24;16.87;;;6.43;;
1715;SDS011;855;48.824;9.220;2022-08-03T02:54:54;10.50;;;5.80;;
1715;SDS011;855;48.824;9.220;2022-08-03T02:57:25;9.00;;;5.57;;
1715;SDS011;855;48.824;9.220;2022-08-03T02:59:54;7.90;;;5.30;;
1715;SDS011;855;48.824;9.220;2022-08-03T03:02:22;11.00;;;6.03;;
1715;SDS011;855;48.824;9.220;2022-08-03T03:04:50;8.63;;;5.60;;
1715;SDS011;855;48.824;9.220;2022-08-03T03:07:18;9.40;;;5.87;;
1715;SDS011;855;48.824;9.220;2022-08-03T03:09:47;9.20;;;6.30;;
1715;SDS011;855;48.824;9.220;2022-08-03T03:12:15;19.30;;;6.07;;
1715;SDS011;855;48.824;9.220;2022-08-03T03:14:43;14.27;;;5.90;;
1715;SDS011;855;48.824;9.220;2022-08-03T03:17:10;10.63;;;5.77;;
1715;SDS011;855;48.824;9.220;2022-08-03T03:19:39;9.40;;;6.37;;
1715;SDS011;855;48.824;9.220;2022-08-03T03:22:09;10.60;;;6.50;;
1715;SDS011;855;48.824;9.220;2022-08-03T03:24:37;11.77;;;6.40;;
1715;SDS011;855;48.824;9.220;2022-08-03T03:27:08;11.90;;;5.90;;
1715;SDS011;855;48.824;9.220;2022-08-03T03:29:35;15.03;;;7.17;;
1715;SDS011;855;48.824;9.220;2022-08-03T03:32:02;8.63;;;5.33;;
1715;SDS011;855;48.824;9.220;2022-08-03T03:34:30;11.57;;;6.80;;
1715;SDS011;855;48.824;9.220;2022-08-03T03:36:57;7.27;;;5.57;;
1715;SDS011;855;48.824;9.220;2022-08-03T03:39:24;11.33;;;5.70;;
1715;SDS011;855;48.824;9.220;2022-08-03T03:41:51;11.33;;;5.50;;
1715;SDS011;855;48.824;9.220;2022-08-03T03:44:20;10.40;;;5.33;;
1715;SDS011;855;48.824;9.220;2022-08-03T03:46:47;8.30;;;5.30;;
1715;SDS011;855;48.824;9.220;2022-08-03T03:49:14;15.57;;;6.07;;
1715;SDS011;855;48.824;9.220;2022-08-03T03:51:41;7.87;;;5.17;;
1715;SDS011;855;48.824;9.220;2022-08-03T03:54:07;9.93;;;6.17;;
1715;SDS011;855;48.824;9.220;2022-08-03T03:56:35;10.27;;;6.00;;
1715;SDS011;855;48.824;9.220;2022-08-03T03:59:02;8.83;;;6.23;;
1715;SDS011;855;48.824;9.220;2022-08-03T04:01:30;9.17;;;6.07;;
1715;SDS011;855;48.824;9.220;2022-08-03T04:03:58;9.30;;;6.00;;
1715;SDS011;855;48.824;9.220;2022-08-03T04:06:46;13.03;;;5.93;;
1715;SDS011;855;48.824;9.220;2022-08-03T04:09:30;11.40;;;5.60;;
1715;SDS011;855;48.824;9.220;2022-08-03T04:12:17;11.93;;;5.57;;
1715;SDS011;855;48.824;9.220;2022-08-03T04:14:46;10.87;;;5.87;;
1715;SDS011;855;48.824;9.220;2022-08-03T04:17:16;11.87;;;5.13;;
1715;SDS011;855;48.824;9.220;2022-08-03T04:19:45;6.90;;;5.27;;
1715;SDS011;855;48.824;9.220;2022-08-03T04:22:16;9.37;;;5.60;;
1715;SDS011;855;48.824;9.220;2022-08-03T04:24:48;9.13;;;5.33;;
1715;SDS011;855;48.824;9.220;2022-08-03T04:27:19;10.63;;;6.03;;
1715;SDS011;855;48.824;9.220;2022-08-03T04:29:50;9.90;;;6.00;;
1715;SDS011;855;48.824;9.220;2022-08-03T04:32:21;8.73;;;5.80;;
1715;SDS011;855;48.824;9.220;2022-08-03T04:34:52;9.43;;;6.90;;
1715;SDS011;855;48.824;9.220;2022-08-03T04:37:21;9.50;;;6.00;;
1715;SDS011;855;48.824;9.220;2022-08-03T04:39:55;12.30;;;6.33;;
1715;SDS011;855;48.824;9.220;2022-08-03T04:42:25;12.53;;;6.50;;
1715;SDS011;855;48.824;9.220;2022-08-03T04:44:53;15.70;;;6.17;;
1715;SDS011;855;48.824;9.220;2022-08-03T04:47:23;15.60;;;6.70;;
1715;SDS011;855;48.824;9.220;2022-08-03T04:49:50;11.33;;;6.17;;
1715;SDS011;855;48.824;9.220;2022-08-03T04:52:18;17.67;;;6.07;;
1715;SDS011;855;48.824;9.220;2022-08-03T04:54:45;9.67;;;6.30;;
1715;SDS011;855;48.824;9.220;2022-08-03T04:57:13;14.83;;;6.00;;
1715;SDS011;855;48.824;9.220;2022-08-03T04:59:40;10.80;;;6.80;;
1715;SDS011;855;48.824;9.220;2022-08-03T05:02:07;10.97;;;4.60;;
1715;SDS011;855;48.824;9.220;2022-08-03T05:04:35;9.67;;;5.60;;
1715;SDS011;855;48.824;9.220;2022-08-03T05:07:05;14.50;;;5.17;;
1715;SDS011;855;48.824;9.220;2022-08-03T05:09:31;7.77;;;5.30;;
1715;SDS011;855;48.824;9.220;2022-08-03T05:12:00;16.63;;;7.00;;
1715;SDS011;855;48.824;9.220;2022-08-03T05:14:27;12.77;;;5.77;;
1715;SDS011;855;48.824;9.220;2022-08-03T05:16:54;13.70;;;5.90;;
1715;SDS011;855;48.824;9.220;2022-08-03T05:19:21;10.30;;;5.47;;
1715;SDS011;855;48.824;9.220;2022-08-03T05:21:49;11.40;;;6.13;;
1715;SDS011;855;48.824;9.220;2022-08-03T05:24:16;8.17;;;5.10;;
1715;SDS011;855;48.824;9.220;2022-08-03T05:26:43;20.13;;;5.43;;
1715;SDS011;855;48.824;9.220;2022-08-03T05:29:09;12.27;;;5.30;;
1715;SDS011;855;48.824;9.220;2022-08-03T05:31:36;8.33;;;4.67;;
1715;SDS011;855;48.824;9.220;2022-08-03T05:34:03;8.70;;;5.27;;
1715;SDS011;855;48.824;9.220;2022-08-03T05:36:30;6.20;;;4.40;;
1715;SDS011;855;48.824;9.220;2022-08-03T05:38:58;6.43;;;4.70;;
1715;SDS011;855;48.824;9.220;2022-08-03T05:41:25;8.47;;;4.43;;
1715;SDS011;855;48.824;9.220;2022-08-03T05:43:52;10.97;;;4.27;;
1715;SDS011;855;48.824;9.220;2022-08-03T05:46:20;14.63;;;4.90;;
1715;SDS011;855;48.824;9.220;2022-08-03T05:48:47;8.83;;;5.17;;
1715;SDS011;855;48.824;9.220;2022-08-03T05:51:15;7.90;;;4.10;;
1715;SDS011;855;48.824;9.220;2022-08-03T05:53:42;6.73;;;4.30;;
1715;SDS011;855;48.824;9.220;2022-08-03T05:56:11;8.97;;;4.90;;
1715;SDS011;855;48.824;9.220;2022-08-03T05:58:38;5.00;;;4.13;;
1715;SDS011;855;48.824;9.220;2022-08-03T06:01:05;8.40;;;4.30;;
1715;SDS011;855;48.824;9.220;2022-08-03T06:03:32;8.87;;;4.37;;
1715;SDS011;855;48.824;9.220;2022-08-03T06:05:58;6.37;;;4.30;;
1715;SDS011;855;48.824;9.220;2022-08-03T06:08:25;7.90;;;4.17;;
1715;SDS011;855;48.824;9.220;2022-08-03T06:10:52;11.20;;;4.10;;
1715;SDS011;855;48.824;9.220;2022-08-03T06:13:20;7.50;;;4.90;;
1715;SDS011;855;48.824;9.220;2022-08-03T06:15:47;7.43;;;4.57;;
1715;SDS011;855;48.824;9.220;2022-08-03T06:18:14;9.53;;;4.00;;
1715;SDS011;855;48.824;9.220;2022-08-03T06:20:41;8.73;;;4.60;;
1715;SDS011;855;48.824;9.220;2022-08-03T06:23:08;5.33;;;4.00;;
1715;SDS011;855;48.824;9.220;2022-08-03T06:25:34;7.67;;;5.07;;
1715;SDS011;855;48.824;9.220;2022-08-03T06:28:01;7.80;;;4.10;;
1715;SDS011;855;48.824;9.220;2022-08-03T06:30:30;12.67;;;4.40;;
1715;SDS011;855;48.824;9.220;2022-08-03T06:32:57;9.57;;;4.63;;
1715;SDS011;855;48.824;9.220;2022-08-03T06:35:24;4.67;;;4.17;;
1715;SDS011;855;48.824;9.220;2022-08-03T06:37:52;7.50;;;4.13;;
1715;SDS011;855;48.824;9.220;2022-08-03T06:40:20;8.43;;;4.10;;
1715;SDS011;855;48.824;9.220;2022-08-03T06:42:53;8.47;;;4.90;;
1715;SDS011;855;48.824;9.220;2022-08-03T06:45:20;9.80;;;4.17;;
1715;SDS011;855;48.824;9.220;2022-08-03T06:48:00;8.37;;;4.50;;
1715;SDS011;855;48.824;9.220;2022-08-03T06:50:27;12.70;;;4.97;;
1715;SDS011;855;48.824;9.220;2022-08-03T06:52:54;7.57;;;4.70;;
1715;SDS011;855;48.824;9.220;2022-08-03T06:55:22;8.27;;;3.83;;
1715;SDS011;855;48.824;9.220;2022-08-03T06:57:49;10.50;;;4.27;;
1715;SDS011;855;48.824;9.220;2022-08-03T07:00:16;4.50;;;3.60;;
1715;SDS011;855;48.824;9.220;2022-08-03T07:02:43;5.30;;;3.73;;
1715;SDS011;855;48.824;9.220;2022-08-03T07:05:12;6.37;;;3.93;;
1715;SDS011;855;48.824;9.220;2022-08-03T07:07:39;4.33;;;3.40;;
1715;SDS011;855;48.824;9.220;2022-08-03T07:10:07;6.60;;;4.37;;
1715;SDS011;855;48.824;9.220;2022-08-03T07:12:36;6.97;;;3.57;;
1715;SDS011;855;48.824;9.220;2022-08-03T07:15:04;6.93;;;3.77;;
1715;SDS011;855;48.824;9.220;2022-08-03T07:17:32;7.10;;;3.37;;
1715;SDS011;855;48.824;9.220;2022-08-03T07:20:01;5.40;;;2.90;;
1715;SDS011;855;48.824;9.220;2022-08-03T07:22:31;7.50;;;3.13;;
1715;SDS011;855;48.824;9.220;2022-08-03T07:24:58;3.23;;;2.50;;
1715;SDS011;855;48.824;9.220;2022-08-03T07:27:25;4.90;;;2.40;;
1715;SDS011;855;48.824;9.220;2022-08-03T07:29:54;3.30;;;2.87;;
1715;SDS011;855;48.824;9.220;2022-08-03T07:32:21;6.73;;;2.80;;
1715;SDS011;855;48.824;9.220;2022-08-03T07:34:49;5.40;;;2.30;;
1715;SDS011;855;48.824;9.220;2022-08-03T07:37:16;3.73;;;2.60;;
1715;SDS011;855;48.824;9.220;2022-08-03T07:39:44;4.67;;;2.90;;
1715;SDS011;855;48.824;9.220;2022-08-03T07:42:11;7.30;;;2.90;;
1715;SDS011;855;48.824;9.220;2022-08-03T07:44:38;5.43;;;2.77;;
1715;SDS011;855;48.824;9.220;2022-08-03T07:47:05;6.53;;;2.80;;
1715;SDS011;855;48.824;9.220;2022-08-03T07:49:32;4.73;;;2.53;;
1715;SDS011;855;48.824;9.220;2022-08-03T07:51:58;4.90;;;2.27;;
1715;SDS011;855;48.824;9.220;2022-08-03T07:54:44;4.50;;;2.47;;
1715;SDS011;855;48.824;9.220;2022-08-03T07:57:11;3.67;;;2.50;;
1715;SDS011;855;48.824;9.220;2022-08-03T07:59:38;5.40;;;2.77;;
1715;SDS011;855;48.824;9.220;2022-08-03T08:02:05;2.73;;;2.37;;
1715;SDS011;855;48.824;9.220;2022-08-03T08:04:32;3.23;;;2.80;;
1715;SDS011;855;48.824;9.220;2022-08-03T08:06:59;2.30;;;2.00;;
1715;SDS011;855;48.824;9.220;2022-08-03T08:09:26;3.03;;;2.27;;
1715;SDS011;855;48.824;9.220;2022-08-03T08:11:54;3.60;;;2.20;;
1715;SDS011;855;48.824;9.220;2022-08-03T08:14:21;3.80;;;2.10;;
1715;SDS011;855;48.824;9.220;2022-08-03T08:16:48;2.97;;;2.20;;
1715;SDS011;855;48.824;9.220;2022-08-03T08:19:15;2.70;;;2.00;;
1715;SDS011;855;48.824;9.220;2022-08-03T08:21:42;4.90;;;2.63;;
1715;SDS011;855;48.824;9.220;2022-08-03T08:24:08;3.03;;;1.90;;
1715;SDS011;855;48.824;9.220;2022-08-03T08:26:35;2.43;;;2.20;;
1715;SDS011;855;48.824;9.220;2022-08-03T08:29:04;4.53;;;2.33;;
1715;SDS011;855;48.824;9.220;2022-08-03T08:31:30;6.50;;;2.00;;
1715;SDS011;855;48.824;9.220;2022-08-03T08:33:58;2.97;;;2.17;;
1715;SDS011;855;48.824;9.220;2022-08-03T08:36:29;2.13;;;1.77;;
1715;SDS011;855;48.824;9.220;2022-08-03T08:38:56;2.13;;;1.97;;
1715;SDS011;855;48.824;9.220;2022-08-03T08:41:23;2.63;;;1.80;;
1715;SDS011;855;48.824;9.220;2022-08-03T08:43:50;2.50;;;1.37;;
1715;SDS011;855;48.824;9.220;2022-08-03T08:46:18;1.37;;;1.33;;
1715;SDS011;855;48.824;9.220;2022-08-03T08:48:45;6.43;;;1.63;;
1715;SDS011;855;48.824;9.220;2022-08-03T08:51:14;3.60;;;1.40;;
1715;SDS011;855;48.824;9.220;2022-08-03T08:53:44;1.40;;;1.30;;
1715;SDS011;855;48.824;9.220;2022-08-03T08:56:16;1.90;;;1.40;;
1715;SDS011;855;48.824;9.220;2022-08-03T08:58:46;2.70;;;1.83;;
1715;SDS011;855;48.824;9.220;2022-08-03T09:01:16;2.33;;;1.40;;
1715;SDS011;855;48.824;9.220;2022-08-03T09:03:46;1.33;;;1.33;;
1715;SDS011;855;48.824;9.220;2022-08-03T09:06:13;3.40;;;1.60;;
1715;SDS011;855;48.824;9.220;2022-08-03T09:08:41;1.33;;;1.13;;
1715;SDS011;855;48.824;9.220;2022-08-03T09:11:08;2.00;;;1.30;;
1715;SDS011;855;48.824;9.220;2022-08-03T09:13:34;1.23;;;1.20;;
1715;SDS011;855;48.824;9.220;2022-08-03T09:16:08;3.23;;;1.70;;
1715;SDS011;855;48.824;9.220;2022-08-03T09:18:38;1.47;;;1.40;;
1715;SDS011;855;48.824;9.220;2022-08-03T09:21:13;6.90;;;1.30;;
1715;SDS011;855;48.824;9.220;2022-08-03T09:23:43;2.10;;;1.30;;
1715;SDS011;855;48.824;9.220;2022-08-03T09:26:12;4.33;;;1.47;;
1715;SDS011;855;48.824;9.220;2022-08-03T09:28:44;1.73;;;1.30;;
1715;SDS011;855;48.824;9.220;2022-08-03T09:31:11;3.47;;;1.67;;
1715;SDS011;855;48.824;9.220;2022-08-03T09:33:46;1.03;;;0.90;;
1715;SDS011;855;48.824;9.220;2022-08-03T09:39:00;3.73;;;1.40;;
1715;SDS011;855;48.824;9.220;2022-08-03T09:41:29;1.67;;;1.30;;
1715;SDS011;855;48.824;9.220;2022-08-03T09:43:56;4.90;;;1.43;;
1715;SDS011;855;48.824;9.220;2022-08-03T09:46:24;1.70;;;1.53;;
1715;SDS011;855;48.824;9.220;2022-08-03T09:48:53;2.23;;;1.50;;
1715;SDS011;855;48.824;9.220;2022-08-03T09:51:34;3.07;;;1.70;;
1715;SDS011;855;48.824;9.220;2022-08-03T09:54:01;3.73;;;2.13;;
1715;SDS011;855;48.824;9.220;2022-08-03T09:56:42;2.00;;;1.30;;
1715;SDS011;855;48.824;9.220;2022-08-03T09:59:11;3.30;;;1.70;;
1715;SDS011;855;48.824;9.220;2022-08-03T10:01:47;2.20;;;1.60;;
1715;SDS011;855;48.824;9.220;2022-08-03T10:04:16;5.00;;;1.50;;
1715;SDS011;855;48.824;9.220;2022-08-03T10:06:43;3.47;;;1.70;;
1715;SDS011;855;48.824;9.220;2022-08-03T10:09:11;1.70;;;1.47;;
1715;SDS011;855;48.824;9.220;2022-08-03T10:11:39;1.50;;;1.20;;
1715;SDS011;855;48.824;9.220;2022-08-03T10:14:08;2.80;;;1.47;;
1715;SDS011;855;48.824;9.220;2022-08-03T10:16:42;7.03;;;1.73;;
1715;SDS011;855;48.824;9.220;2022-08-03T10:19:10;3.47;;;1.47;;
1715;SDS011;855;48.824;9.220;2022-08-03T10:21:40;7.00;;;1.60;;
1715;SDS011;855;48.824;9.220;2022-08-03T10:24:10;2.20;;;1.50;;
1715;SDS011;855;48.824;9.220;2022-08-03T10:26:43;1.40;;;1.37;;
1715;SDS011;855;48.824;9.220;2022-08-03T10:29:11;2.60;;;1.87;;
1715;SDS011;855;48.824;9.220;2022-08-03T10:31:44;1.83;;;1.43;;
1715;SDS011;855;48.824;9.220;2022-08-03T10:34:14;5.43;;;1.90;;
1715;SDS011;855;48.824;9.220;2022-08-03T10:36:45;4.00;;;1.70;;
1715;SDS011;855;48.824;9.220;2022-08-03T10:39:14;2.10;;;1.73;;
1715;SDS011;855;48.824;9.220;2022-08-03T10:41:44;5.50;;;1.80;;
1715;SDS011;855;48.824;9.220;2022-08-03T10:44:14;2.40;;;1.80;;
1715;SDS011;855;48.824;9.220;2022-08-03T10:46:44;4.03;;;1.47;;
1715;SDS011;855;48.824;9.220;2022-08-03T10:49:12;1.77;;;1.30;;
1715;SDS011;855;48.824;9.220;2022-08-03T10:51:40;6.80;;;1.90;;
1715;SDS011;855;48.824;9.220;2022-08-03T10:54:13;2.77;;;1.70;;
1715;SDS011;855;48.824;9.220;2022-08-03T10:57:42;2.20;;;1.80;;
1715;SDS011;855;48.824;9.220;2022-08-03T11:00:10;2.30;;;1.63;;
1715;SDS011;855;48.824;9.220;2022-08-03T11:05:28;2.17;;;2.00;;
1715;SDS011;855;48.824;9.220;2022-08-03T11:10:54;3.53;;;1.83;;
1715;SDS011;855;48.824;9.220;2022-08-03T11:13:23;3.90;;;1.60;;
1715;SDS011;855;48.824;9.220;2022-08-03T11:15:53;2.47;;;1.97;;
1715;SDS011;855;48.824;9.220;2022-08-03T11:18:22;2.20;;;1.87;;
1715;SDS011;855;48.824;9.220;2022-08-03T11:20:50;4.83;;;1.77;;
1715;SDS011;855;48.824;9.220;2022-08-03T11:23:18;2.53;;;2.23;;
1715;SDS011;855;48.824;9.220;2022-08-03T11:26:12;9.33;;;1.80;;
1715;SDS011;855;48.824;9.220;2022-08-03T11:28:40;2.70;;;2.10;;
1715;SDS011;855;48.824;9.220;2022-08-03T11:34:18;2.97;;;1.80;;
1715;SDS011;855;48.824;9.220;2022-08-03T11:39:50;2.10;;;1.57;;
1715;SDS011;855;48.824;9.220;2022-08-03T11:45:11;3.17;;;2.40;;
1715;SDS011;855;48.824;9.220;2022-08-03T11:47:39;6.47;;;2.10;;
1715;SDS011;855;48.824;9.220;2022-08-03T11:50:07;2.60;;;1.87;;
1715;SDS011;855;48.824;9.220;2022-08-03T11:52:35;4.60;;;1.90;;
1715;SDS011;855;48.824;9.220;2022-08-03T11:55:13;5.90;;;1.80;;
1715;SDS011;855;48.824;9.220;2022-08-03T11:57:44;7.60;;;1.90;;
1715;SDS011;855;48.824;9.220;2022-08-03T12:00:27;4.70;;;1.80;;
1715;SDS011;855;48.824;9.220;2022-08-03T12:02:57;3.27;;;2.10;;
1715;SDS011;855;48.824;9.220;2022-08-03T12:05:35;3.20;;;1.97;;
1715;SDS011;855;48.824;9.220;2022-08-03T12:08:04;2.60;;;1.70;;
1715;SDS011;855;48.824;9.220;2022-08-03T12:10:31;7.50;;;2.13;;
1715;SDS011;855;48.824;9.220;2022-08-03T12:13:00;3.57;;;2.00;;
1715;SDS011;855;48.824;9.220;2022-08-03T12:15:30;1.57;;;1.50;;
1715;SDS011;855;48.824;9.220;2022-08-03T12:18:00;2.53;;;1.70;;
1715;SDS011;855;48.824;9.220;2022-08-03T12:20:28;3.37;;;2.53;;
1715;SDS011;855;48.824;9.220;2022-08-03T12:23:01;2.33;;;2.00;;
1715;SDS011;855;48.824;9.220;2022-08-03T12:25:29;2.83;;;1.93;;
1715;SDS011;855;48.824;9.220;2022-08-03T12:28:06;8.47;;;1.80;;
1715;SDS011;855;48.824;9.220;2022-08-03T12:30:36;4.10;;;2.40;;
1715;SDS011;855;48.824;9.220;2022-08-03T12:33:11;2.27;;;2.07;;
1715;SDS011;855;48.824;9.220;2022-08-03T12:35:49;2.90;;;1.73;;
1715;SDS011;855;48.824;9.220;2022-08-03T12:38:28;3.00;;;1.90;;
1715;SDS011;855;48.824;9.220;2022-08-03T12:40:56;4.90;;;1.87;;
1715;SDS011;855;48.824;9.220;2022-08-03T12:43:25;2.53;;;1.97;;
1715;SDS011;855;48.824;9.220;2022-08-03T12:46:09;2.00;;;1.83;;
1715;SDS011;855;48.824;9.220;2022-08-03T12:51:30;5.77;;;1.70;;
1715;SDS011;855;48.824;9.220;2022-08-03T12:53:59;1.70;;;1.60;;
1715;SDS011;855;48.824;9.220;2022-08-03T12:56:26;2.57;;;2.03;;
1715;SDS011;855;48.824;9.220;2022-08-03T12:58:55;2.77;;;2.10;;
1715;SDS011;855;48.824;9.220;2022-08-03T13:01:22;5.10;;;1.50;;
1715;SDS011;855;48.824;9.220;2022-08-03T13:03:51;1.93;;;1.67;;
1715;SDS011;855;48.824;9.220;2022-08-03T13:06:19;3.43;;;1.70;;
1715;SDS011;855;48.824;9.220;2022-08-03T13:08:47;5.17;;;1.93;;
1715;SDS011;855;48.824;9.220;2022-08-03T13:11:19;2.10;;;1.87;;
1715;SDS011;855;48.824;9.220;2022-08-03T13:13:47;1.80;;;1.70;;
1715;SDS011;855;48.824;9.220;2022-08-03T13:16:16;4.10;;;1.73;;
1715;SDS011;855;48.824;9.220;2022-08-03T13:18:43;2.37;;;1.73;;
1715;SDS011;855;48.824;9.220;2022-08-03T13:21:11;2.20;;;1.70;;
1715;SDS011;855;48.824;9.220;2022-08-03T13:23:39;2.33;;;1.77;;
1715;SDS011;855;48.824;9.220;2022-08-03T13:26:06;4.80;;;1.27;;
1715;SDS011;855;48.824;9.220;2022-08-03T13:28:33;2.30;;;1.93;;
1715;SDS011;855;48.824;9.220;2022-08-03T13:31:00;2.00;;;1.50;;
1715;SDS011;855;48.824;9.220;2022-08-03T13:33:28;2.43;;;1.97;;
1715;SDS011;855;48.824;9.220;2022-08-03T13:35:55;3.60;;;1.93;;
1715;SDS011;855;48.824;9.220;2022-08-03T13:38:23;2.00;;;1.90;;
1715;SDS011;855;48.824;9.220;2022-08-03T13:40:50;2.40;;;2.20;;
1715;SDS011;855;48.824;9.220;2022-08-03T13:43:18;3.90;;;2.00;;
1715;SDS011;855;48.824;9.220;2022-08-03T13:45:46;8.53;;;2.10;;
1715;SDS011;855;48.824;9.220;2022-08-03T13:48:13;1.63;;;1.57;;
1715;SDS011;855;48.824;9.220;2022-08-03T13:50:41;3.93;;;1.97;;
1715;SDS011;855;48.824;9.220;2022-08-03T13:53:08;1.70;;;1.40;;
1715;SDS011;855;48.824;9.220;2022-08-03T13:55:35;2.70;;;1.73;;
1715;SDS011;855;48.824;9.220;2022-08-03T13:58:01;3.37;;;2.00;;
1715;SDS011;855;48.824;9.220;2022-08-03T14:00:29;8.10;;;2.30;;
1715;SDS011;855;48.824;9.220;2022-08-03T14:02:56;4.00;;;1.80;;
1715;SDS011;855;48.824;9.220;2022-08-03T14:05:24;2.83;;;1.70;;
1715;SDS011;855;48.824;9.220;2022-08-03T14:07:52;3.73;;;2.03;;
1715;SDS011;855;48.824;9.220;2022-08-03T14:10:19;5.67;;;2.30;;
1715;SDS011;855;48.824;9.220;2022-08-03T14:12:46;1.60;;;1.40;;
1715;SDS011;855;48.824;9.220;2022-08-03T14:15:12;3.20;;;2.00;;
1715;SDS011;855;48.824;9.220;2022-08-03T14:17:39;2.30;;;2.03;;
1715;SDS011;855;48.824;9.220;2022-08-03T14:20:07;1.80;;;1.63;;
1715;SDS011;855;48.824;9.220;2022-08-03T14:22:36;3.07;;;1.53;;
1715;SDS011;855;48.824;9.220;2022-08-03T14:25:05;4.03;;;2.23;;
1715;SDS011;855;48.824;9.220;2022-08-03T14:27:33;4.53;;;2.30;;
1715;SDS011;855;48.824;9.220;2022-08-03T14:30:01;2.10;;;1.57;;
1715;SDS011;855;48.824;9.220;2022-08-03T14:32:28;2.80;;;1.93;;
1715;SDS011;855;48.824;9.220;2022-08-03T14:34:55;3.17;;;1.60;;
1715;SDS011;855;48.824;9.220;2022-08-03T14:37:22;2.60;;;1.70;;
1715;SDS011;855;48.824;9.220;2022-08-03T14:39:49;3.33;;;1.57;;
1715;SDS011;855;48.824;9.220;2022-08-03T14:42:17;4.33;;;1.77;;
1715;SDS011;855;48.824;9.220;2022-08-03T14:44:44;2.70;;;1.87;;
1715;SDS011;855;48.824;9.220;2022-08-03T14:47:13;2.63;;;2.10;;
1715;SDS011;855;48.824;9.220;2022-08-03T14:49:40;3.43;;;1.90;;
1715;SDS011;855;48.824;9.220;2022-08-03T14:52:07;4.50;;;1.93;;
1715;SDS011;855;48.824;9.220;2022-08-03T14:54:34;1.17;;;1.13;;
1715;SDS011;855;48.824;9.220;2022-08-03T14:57:01;3.80;;;1.83;;
1715;SDS011;855;48.824;9.220;2022-08-03T14:59:30;4.13;;;1.87;;
1715;SDS011;855;48.824;9.220;2022-08-03T15:01:56;3.70;;;2.00;;
1715;SDS011;855;48.824;9.220;2022-08-03T15:04:23;3.17;;;1.70;;
1715;SDS011;855;48.824;9.220;2022-08-03T15:06:50;2.10;;;1.97;;
1715;SDS011;855;48.824;9.220;2022-08-03T15:09:17;3.73;;;1.93;;
1715;SDS011;855;48.824;9.220;2022-08-03T15:11:44;2.90;;;1.77;;
1715;SDS011;855;48.824;9.220;2022-08-03T15:14:11;1.53;;;1.43;;
1715;SDS011;855;48.824;9.220;2022-08-03T15:16:39;4.00;;;1.80;;
1715;SDS011;855;48.824;9.220;2022-08-03T15:19:06;4.57;;;1.90;;
1715;SDS011;855;48.824;9.220;2022-08-03T15:21:33;3.00;;;2.27;;
1715;SDS011;855;48.824;9.220;2022-08-03T15:24:07;1.73;;;1.70;;
1715;SDS011;855;48.824;9.220;2022-08-03T15:26:34;3.73;;;2.03;;
1715;SDS011;855;48.824;9.220;2022-08-03T15:29:01;2.80;;;1.73;;
1715;SDS011;855;48.824;9.220;2022-08-03T15:31:28;1.53;;;1.40;;
1715;SDS011;855;48.824;9.220;2022-08-03T15:33:56;4.30;;;1.90;;
1715;SDS011;855;48.824;9.220;2022-08-03T15:36:23;1.63;;;1.53;;
1715;SDS011;855;48.824;9.220;2022-08-03T15:38:50;6.03;;;1.43;;
1715;SDS011;855;48.824;9.220;2022-08-03T15:41:17;2.03;;;1.50;;
1715;SDS011;855;48.824;9.220;2022-08-03T15:43:44;2.27;;;1.97;;
1715;SDS011;855;48.824;9.220;2022-08-03T15:46:11;2.20;;;1.70;;
1715;SDS011;855;48.824;9.220;2022-08-03T15:48:39;1.30;;;1.23;;
1715;SDS011;855;48.824;9.220;2022-08-03T15:51:07;2.10;;;1.43;;
1715;SDS011;855;48.824;9.220;2022-08-03T15:53:34;3.43;;;1.40;;
1715;SDS011;855;48.824;9.220;2022-08-03T15:56:02;2.20;;;1.50;;
1715;SDS011;855;48.824;9.220;2022-08-03T15:58:31;5.90;;;2.03;;
1715;SDS011;855;48.824;9.220;2022-08-03T16:00:58;1.90;;;1.53;;